Aérodrome :
LOGIN :

S'inscrire | Disclaimer

   EN    FR    IT 

 










Légende :    VFR   VFR Marginal   IFR   IFR Intensif   IFR Très Intensif
Visi : 
Plafond : 
>= 8 km
>= 3000ft
5 à 8 km
1000 à 3000 ft
1500m à 5 km
500 à 1000 ft
800 à 1500m
200 à 500 ft
< 800m
< 200 ft
Symboles :   Orages  Brouillard  Fortes neiges  Fortes précipitations  Vent > 20 kt
SIGMETs :   Divers  Orages  Givrage  Turbulence  Onde Orograph.  Cendres Volcan.







- Altitude de l'aérodrome : 863 ft
- Code IATA : ZAZ


LEZG - Zaragoza Aragon

DERNIER METAR :
  • 241000Z 36002KT CAVOK 19/14 Q1020

METARs EXPIRÉS :
  • 240930Z 14001KT 9000 NSC 18/14 Q1021
  • 240900Z VRB02KT 9000 NSC 16/14 Q1021
  • 240830Z 14001KT 8000 NSC 16/13 Q1021
  • 240800Z 00000KT 8000 VCFG NSC 15/13 Q1021
  • 240730Z VRB01KT 6000 VCFG NSC 13/12 Q1021

TAF AMD TAF LEZG
Valide du 24 à 06h jusqu'au 25 à 06h UTC


240601Z 2406/2506 VRB03KT 9999 FEW060 TX26/2414Z TN12/2506Z
TEMPO 2406/2408 0500 BCFG
BECMG 2410/2413 11010KT
BECMG 2419/2422 VRB03KT
Pas de NOTAMs connus pour ce terrain.



MET'MAP, la Météo Aéronautique d'un coup d'oeil ! - Copyright ORBIFLY Décembre 2007 - Disclaimer

ORBIFLY MET'MAP TEAM :

Programmation & Développement : Alexandra Zaïnal
Conception & Développement : Baudouin d'Aumeries
Co-Programmation & Développement : Marc-Olivier Méhu
Soutien technique & logistique : Manuel Goepfert

Contact : metmap@orbifly.com




SOURCES & CREDITS :

   NOAA